createdAt,value
2018-11-03T00:00:18.604Z,14.68
2018-11-03T00:02:48.337Z,14.66
2018-11-03T00:05:17.898Z,14.66
2018-11-03T00:07:47.622Z,14.65
2018-11-03T00:10:17.208Z,14.65
2018-11-03T00:12:46.756Z,14.63
2018-11-03T00:15:16.320Z,14.60
2018-11-03T00:17:45.909Z,14.56
2018-11-03T00:20:15.439Z,14.54
2018-11-03T00:22:45.297Z,14.52
2018-11-03T00:25:14.869Z,14.48
2018-11-03T00:27:44.450Z,14.44
2018-11-03T00:30:14.210Z,14.41
2018-11-03T00:32:43.716Z,14.37
2018-11-03T00:35:13.328Z,14.34
2018-11-03T00:37:42.875Z,14.31
2018-11-03T00:40:14.105Z,14.29
2018-11-03T00:42:44.325Z,14.27
2018-11-03T00:45:14.472Z,14.25
2018-11-03T00:47:44.643Z,14.23
2018-11-03T00:50:15.292Z,14.23
2018-11-03T00:52:45.104Z,14.20
2018-11-03T00:55:14.850Z,13.11
2018-11-03T00:57:44.444Z,14.16
2018-11-03T01:00:15.968Z,14.15
2018-11-03T01:02:47.645Z,14.16
2018-11-03T01:05:17.358Z,14.14
2018-11-03T01:07:47.296Z,14.14
2018-11-03T01:10:17.654Z,14.15
2018-11-03T01:12:47.222Z,14.15
2018-11-03T01:15:17.786Z,14.15
2018-11-03T01:17:47.374Z,14.17
2018-11-03T01:20:17.858Z,14.15
2018-11-03T01:22:47.470Z,14.13
2018-11-03T01:25:17.108Z,14.10
2018-11-03T01:27:46.658Z,14.09
2018-11-03T01:30:17.097Z,14.08
2018-11-03T01:32:46.693Z,14.07
2018-11-03T01:35:16.310Z,14.06
2018-11-03T01:37:45.811Z,14.04
2018-11-03T01:40:15.404Z,14.03
2018-11-03T01:42:45.007Z,14.02
2018-11-03T01:45:14.570Z,14.01
2018-11-03T01:47:44.153Z,14.01
2018-11-03T01:50:13.716Z,14.01
2018-11-03T01:52:43.337Z,14.01
2018-11-03T01:55:12.879Z,14.02
2018-11-03T01:57:42.441Z,14.03
2018-11-03T02:00:12.246Z,14.03
2018-11-03T02:02:41.862Z,14.04
2018-11-03T02:05:11.638Z,14.04
2018-11-03T02:07:41.398Z,14.04
2018-11-03T02:10:11.909Z,14.04
2018-11-03T02:12:41.899Z,14.05
2018-11-03T02:15:11.550Z,14.04
2018-11-03T02:17:41.114Z,14.05
2018-11-03T02:20:11.536Z,14.06
2018-11-03T02:22:41.305Z,14.07
2018-11-03T02:25:11.131Z,13.12
2018-11-03T02:27:40.955Z,14.08
2018-11-03T02:30:11.614Z,14.09
2018-11-03T02:32:41.547Z,14.11
2018-11-03T02:35:11.974Z,14.15
2018-11-03T02:37:42.015Z,14.17
2018-11-03T02:40:12.814Z,14.19
2018-11-03T02:42:42.987Z,14.21
2018-11-03T02:45:12.698Z,14.23
2018-11-03T02:47:42.549Z,14.25
2018-11-03T02:50:13.615Z,14.26
2018-11-03T02:52:43.475Z,14.27
2018-11-03T02:55:13.099Z,14.28
2018-11-03T02:57:42.623Z,14.29
2018-11-03T03:00:12.515Z,14.30
2018-11-03T03:02:42.031Z,14.32
2018-11-03T03:05:11.975Z,14.34
2018-11-03T03:07:41.872Z,14.34
2018-11-03T03:10:12.871Z,14.32
2018-11-03T03:12:42.389Z,14.30
2018-11-03T03:15:12.884Z,14.27
2018-11-03T03:17:42.944Z,14.26
2018-11-03T03:20:13.226Z,14.25
2018-11-03T03:22:43.036Z,14.23
2018-11-03T03:25:12.661Z,14.20
2018-11-03T03:27:42.264Z,14.18
2018-11-03T03:30:12.112Z,14.16
2018-11-03T03:32:41.978Z,14.13
2018-11-03T03:35:11.638Z,14.12
2018-11-03T03:37:41.216Z,14.10
2018-11-03T03:40:11.330Z,14.07
2018-11-03T03:42:40.849Z,14.06
2018-11-03T03:45:10.981Z,14.04
2018-11-03T03:47:40.609Z,14.02
2018-11-03T03:50:11.255Z,14.00
2018-11-03T03:52:40.778Z,13.99
2018-11-03T03:55:10.619Z,13.98
2018-11-03T03:57:40.134Z,13.96
2018-11-03T04:00:11.435Z,13.95
2018-11-03T04:02:41.252Z,13.94
2018-11-03T04:05:10.953Z,13.93
2018-11-03T04:07:40.503Z,13.95
2018-11-03T04:10:10.672Z,13.95
2018-11-03T04:12:40.330Z,13.95
2018-11-03T04:15:09.962Z,13.93
2018-11-03T04:17:39.543Z,13.92
2018-11-03T04:20:09.186Z,13.92
2018-11-03T04:22:38.719Z,13.93
2018-11-03T04:25:08.310Z,13.94
2018-11-03T04:27:37.870Z,13.94
2018-11-03T04:30:10.497Z,13.95
2018-11-03T04:32:40.040Z,13.95
2018-11-03T04:35:10.139Z,13.96
2018-11-03T04:37:39.841Z,13.96
2018-11-03T04:40:11.210Z,13.97
2018-11-03T04:42:41.052Z,13.96
2018-11-03T04:45:11.367Z,13.97
2018-11-03T04:47:40.946Z,13.96
2018-11-03T04:50:10.960Z,13.97
2018-11-03T04:52:40.481Z,13.97
2018-11-03T04:55:10.328Z,13.13
2018-11-03T04:57:39.840Z,13.98
2018-11-03T05:00:09.855Z,13.99
2018-11-03T05:02:39.504Z,14.00
2018-11-03T05:05:09.092Z,14.02
2018-11-03T05:07:38.655Z,14.01
2018-11-03T05:10:09.051Z,14.01
2018-11-03T05:12:39.044Z,13.99
2018-11-03T05:15:08.634Z,13.99
2018-11-03T05:17:38.159Z,13.96
2018-11-03T05:20:07.739Z,13.94
2018-11-03T05:22:37.306Z,13.92
2018-11-03T05:25:06.963Z,13.93
2018-11-03T05:27:36.556Z,13.91
2018-11-03T05:30:06.631Z,13.92
2018-11-03T05:32:36.155Z,13.95
2018-11-03T05:35:06.415Z,13.96
2018-11-03T05:37:35.948Z,13.96
2018-11-03T05:40:05.770Z,13.98
2018-11-03T05:42:35.303Z,14.02
2018-11-03T05:45:05.044Z,14.01
2018-11-03T05:47:34.581Z,14.03
2018-11-03T05:50:04.189Z,14.07
2018-11-03T05:52:33.745Z,14.10
2018-11-03T05:55:03.323Z,14.14
2018-11-03T05:57:32.887Z,14.20
2018-11-03T06:00:02.486Z,14.23
2018-11-03T06:02:32.011Z,14.28
2018-11-03T06:05:01.563Z,14.32
2018-11-03T06:07:31.146Z,14.35
2018-11-03T06:10:00.683Z,14.35
2018-11-03T06:12:30.255Z,14.38
2018-11-03T06:14:59.835Z,14.40
2018-11-03T06:17:29.343Z,14.42
2018-11-03T06:19:58.906Z,14.48
2018-11-03T06:22:28.495Z,14.47
2018-11-03T06:24:58.017Z,14.41
2018-11-03T06:27:27.591Z,14.42
2018-11-03T06:29:57.160Z,14.47
2018-11-03T06:32:26.721Z,14.51
2018-11-03T06:34:56.299Z,14.58
2018-11-03T06:37:25.901Z,14.64
2018-11-03T06:39:55.420Z,14.56
2018-11-03T06:42:24.999Z,14.58
2018-11-03T06:44:54.604Z,14.64
2018-11-03T06:47:24.178Z,14.76
2018-11-03T06:49:53.749Z,14.78
2018-11-03T06:52:23.350Z,14.73
2018-11-03T06:54:52.828Z,14.85
2018-11-03T06:57:22.423Z,14.90
2018-11-03T06:59:52.015Z,14.99
2018-11-03T07:02:21.524Z,15.10
2018-11-03T07:04:51.077Z,15.17
2018-11-03T07:07:20.651Z,15.26
2018-11-03T07:09:50.150Z,15.33
2018-11-03T07:12:19.833Z,15.41
2018-11-03T07:14:49.331Z,15.49
2018-11-03T07:17:18.922Z,15.56
2018-11-03T07:19:48.442Z,15.59
2018-11-03T07:22:18.011Z,15.65
2018-11-03T07:24:47.540Z,15.72
2018-11-03T07:27:17.149Z,15.83
2018-11-03T07:29:46.764Z,15.92
2018-11-03T07:32:16.366Z,16.01
2018-11-03T07:34:45.924Z,16.12
2018-11-03T07:37:15.462Z,16.21
2018-11-03T07:39:44.996Z,16.32
2018-11-03T07:42:14.594Z,16.47
2018-11-03T07:44:44.104Z,16.62
2018-11-03T07:47:13.664Z,16.73
2018-11-03T07:49:43.191Z,16.83
2018-11-03T07:52:12.760Z,16.92
2018-11-03T07:54:42.457Z,16.99
2018-11-03T07:57:11.890Z,17.08
2018-11-03T07:59:41.396Z,17.17
2018-11-03T08:02:10.908Z,17.21
2018-11-03T08:04:40.457Z,17.30
2018-11-03T08:07:09.990Z,17.42
2018-11-03T08:09:39.474Z,17.51
2018-11-03T08:12:09.016Z,17.60
2018-11-03T08:14:38.601Z,17.67
2018-11-03T08:17:08.108Z,17.72
2018-11-03T08:19:37.650Z,17.72
2018-11-03T08:22:07.215Z,17.73
2018-11-03T08:24:36.763Z,17.70
2018-11-03T08:27:06.322Z,17.68
2018-11-03T08:29:35.908Z,17.65
2018-11-03T08:32:05.590Z,17.69
2018-11-03T08:34:35.148Z,17.75
2018-11-03T08:37:04.720Z,17.72
2018-11-03T08:39:34.302Z,17.65
2018-11-03T08:42:03.886Z,17.72
2018-11-03T08:44:33.443Z,17.72
2018-11-03T08:47:02.975Z,17.77
2018-11-03T08:49:32.479Z,17.83
2018-11-03T08:52:02.077Z,17.90
2018-11-03T08:54:31.624Z,17.89
2018-11-03T08:57:01.270Z,17.92
2018-11-03T08:59:30.856Z,17.91
2018-11-03T09:02:00.386Z,17.85
2018-11-03T09:04:30.928Z,17.84
2018-11-03T09:07:00.537Z,17.88
2018-11-03T09:09:30.008Z,17.95
2018-11-03T09:11:59.558Z,18.01
2018-11-03T09:14:29.272Z,18.09
2018-11-03T09:16:58.762Z,18.09
2018-11-03T09:19:28.351Z,18.13
2018-11-03T09:21:58.096Z,18.12
2018-11-03T09:24:27.628Z,18.12
2018-11-03T09:26:57.302Z,18.11
2018-11-03T09:29:26.812Z,18.08
2018-11-03T09:31:56.461Z,18.03
2018-11-03T09:34:26.021Z,18.07
2018-11-03T09:36:55.574Z,18.09
2018-11-03T09:39:25.118Z,18.13
2018-11-03T09:41:54.671Z,18.08
2018-11-03T09:44:24.200Z,18.03
2018-11-03T09:46:53.735Z,18.01
2018-11-03T09:49:23.255Z,18.02
2018-11-03T09:51:52.787Z,18.09
2018-11-03T09:54:22.344Z,18.00
2018-11-03T09:56:51.899Z,18.08
2018-11-03T09:59:21.420Z,18.12
2018-11-03T10:01:50.979Z,18.15
2018-11-03T10:04:20.547Z,18.13
2018-11-03T10:06:50.196Z,18.16
2018-11-03T10:09:19.854Z,18.20
2018-11-03T10:11:49.391Z,18.21
2018-11-03T10:14:18.931Z,18.23
2018-11-03T10:16:48.443Z,18.29
2018-11-03T10:19:17.952Z,18.27
2018-11-03T10:21:47.475Z,18.33
2018-11-03T10:24:16.966Z,18.36
2018-11-03T10:26:46.565Z,18.37
2018-11-03T10:29:16.103Z,18.36
2018-11-03T10:31:45.714Z,18.41
2018-11-03T10:34:15.251Z,18.42
2018-11-03T10:36:44.834Z,18.35
2018-11-03T10:39:14.380Z,18.32
2018-11-03T10:41:43.935Z,18.37
2018-11-03T10:44:13.521Z,18.41
2018-11-03T10:46:43.081Z,18.46
2018-11-03T10:49:12.626Z,18.52
2018-11-03T10:51:42.137Z,18.62
2018-11-03T10:54:11.640Z,18.69
2018-11-03T10:56:41.181Z,18.76
2018-11-03T10:59:10.682Z,18.77
2018-11-03T11:01:45.326Z,18.80
2018-11-03T11:04:19.854Z,18.89
2018-11-03T11:06:54.342Z,18.85
2018-11-03T11:09:28.966Z,18.86
2018-11-03T11:12:03.478Z,18.83
2018-11-03T11:14:33.076Z,18.76
2018-11-03T11:17:02.712Z,18.77
2018-11-03T11:19:32.180Z,18.79
2018-11-03T11:22:01.718Z,18.79
2018-11-03T11:24:31.282Z,18.86
2018-11-03T11:27:00.835Z,18.93
2018-11-03T11:29:30.355Z,18.93
2018-11-03T11:31:59.923Z,18.79
2018-11-03T11:34:29.471Z,18.75
2018-11-03T11:36:59.008Z,18.62
2018-11-03T11:39:28.573Z,18.54
2018-11-03T11:41:58.124Z,18.50
2018-11-03T11:44:27.663Z,18.54
2018-11-03T11:46:57.269Z,17.72
2018-11-03T11:49:26.858Z,18.62
2018-11-03T11:51:56.415Z,18.58
2018-11-03T11:54:25.934Z,18.55
2018-11-03T11:56:55.543Z,18.57
2018-11-03T11:59:25.173Z,18.62
2018-11-03T12:01:54.740Z,18.62
2018-11-03T12:04:24.281Z,18.68
2018-11-03T12:06:53.903Z,18.70
2018-11-03T12:09:23.449Z,18.80
2018-11-03T12:11:53.011Z,18.85
2018-11-03T12:14:22.530Z,18.92
2018-11-03T12:16:52.118Z,18.98
2018-11-03T12:19:21.699Z,18.98
2018-11-03T12:21:51.243Z,18.73
2018-11-03T12:24:20.840Z,18.70
2018-11-03T12:26:50.370Z,18.64
2018-11-03T12:29:19.916Z,18.59
2018-11-03T12:31:49.495Z,18.57
2018-11-03T12:34:18.986Z,18.54
2018-11-03T12:36:48.607Z,18.51
2018-11-03T12:39:18.151Z,18.38
2018-11-03T12:41:47.743Z,18.33
2018-11-03T12:44:17.278Z,18.30
2018-11-03T12:46:46.826Z,18.39
2018-11-03T12:49:16.334Z,18.43
2018-11-03T12:51:45.870Z,18.44
2018-11-03T12:54:15.366Z,18.50
2018-11-03T12:56:45.042Z,18.50
2018-11-03T12:59:14.615Z,18.52
2018-11-03T13:01:44.382Z,18.54
2018-11-03T13:04:14.038Z,18.53
2018-11-03T13:06:43.592Z,18.51
2018-11-03T13:09:13.111Z,18.51
2018-11-03T13:11:42.671Z,18.52
2018-11-03T13:14:12.183Z,18.53
2018-11-03T13:16:41.791Z,18.54
2018-11-03T13:19:11.304Z,18.54
2018-11-03T13:21:40.791Z,18.54
2018-11-03T13:24:10.395Z,18.52
2018-11-03T13:26:39.953Z,18.50
2018-11-03T13:29:09.466Z,18.51
2018-11-03T13:31:38.946Z,18.51
2018-11-03T13:34:08.490Z,18.52
2018-11-03T13:36:38.015Z,18.51
2018-11-03T13:39:08.627Z,18.49
2018-11-03T13:41:38.184Z,17.56
2018-11-03T13:44:07.752Z,17.59
2018-11-03T13:46:37.301Z,18.43
2018-11-03T13:49:06.815Z,18.41
2018-11-03T13:51:36.342Z,18.37
2018-11-03T13:54:05.879Z,18.32
2018-11-03T13:56:35.378Z,18.29
2018-11-03T13:59:05.752Z,18.23
2018-11-03T14:01:35.293Z,18.18
2018-11-03T14:04:04.835Z,18.12
2018-11-03T14:06:34.487Z,18.08
2018-11-03T14:09:04.833Z,18.02
2018-11-03T14:11:34.339Z,17.96
2018-11-03T14:14:04.013Z,17.91
2018-11-03T14:16:33.699Z,17.90
2018-11-03T14:19:03.276Z,17.87
2018-11-03T14:21:32.789Z,17.79
2018-11-03T14:24:02.370Z,17.79
2018-11-03T14:26:31.906Z,17.73
2018-11-03T14:29:01.583Z,17.69
2018-11-03T14:31:31.067Z,17.63
2018-11-03T14:34:00.618Z,17.58
2018-11-03T14:36:30.207Z,17.47
2018-11-03T14:38:59.690Z,17.45
2018-11-03T14:41:29.253Z,17.38
2018-11-03T14:43:58.756Z,17.35
2018-11-03T14:46:28.324Z,17.27
2018-11-03T14:48:57.826Z,17.24
2018-11-03T14:51:27.364Z,17.18
2018-11-03T14:53:56.977Z,17.10
2018-11-03T14:56:26.561Z,17.03
2018-11-03T14:58:56.072Z,16.98
2018-11-03T15:01:25.632Z,16.90
2018-11-03T15:03:55.149Z,16.84
2018-11-03T15:06:24.785Z,16.77
2018-11-03T15:08:54.316Z,16.71
2018-11-03T15:11:23.852Z,16.66
2018-11-03T15:13:53.513Z,16.59
2018-11-03T15:16:22.989Z,16.55
2018-11-03T15:18:52.497Z,16.48
2018-11-03T15:21:22.080Z,16.40
2018-11-03T15:23:51.620Z,16.33
2018-11-03T15:26:21.235Z,16.27
2018-11-03T15:28:50.783Z,16.20
2018-11-03T15:31:20.271Z,16.13
2018-11-03T15:33:49.835Z,16.06
2018-11-03T15:36:19.395Z,16.01
2018-11-03T15:38:48.967Z,15.96
2018-11-03T15:41:18.601Z,15.91
2018-11-03T15:43:48.103Z,15.85
2018-11-03T15:46:17.679Z,15.80
2018-11-03T15:48:47.254Z,14.59
2018-11-03T15:51:16.766Z,15.70
2018-11-03T15:53:46.339Z,15.65
2018-11-03T15:56:15.851Z,15.59
2018-11-03T15:58:45.425Z,15.54
2018-11-03T16:01:14.967Z,15.47
2018-11-03T16:03:44.486Z,15.40
2018-11-03T16:06:14.099Z,15.34
2018-11-03T16:08:43.607Z,15.28
2018-11-03T16:11:13.208Z,15.23
2018-11-03T16:13:42.754Z,15.19
2018-11-03T16:16:12.275Z,15.12
2018-11-03T16:18:41.832Z,15.07
2018-11-03T16:21:11.336Z,15.00
2018-11-03T16:23:40.880Z,14.94
2018-11-03T16:26:10.399Z,14.89
2018-11-03T16:28:40.091Z,14.83
2018-11-03T16:31:09.551Z,14.76
2018-11-03T16:33:39.084Z,14.70
2018-11-03T16:36:08.649Z,14.66
2018-11-03T16:38:38.289Z,14.61
2018-11-03T16:41:07.759Z,14.57
2018-11-03T16:43:37.322Z,14.52
2018-11-03T16:46:06.922Z,14.49
2018-11-03T16:48:36.424Z,14.45
2018-11-03T16:51:06.160Z,14.40
2018-11-03T16:53:35.695Z,14.38
2018-11-03T16:56:05.434Z,14.35
2018-11-03T16:58:35.004Z,14.33
2018-11-03T17:01:04.611Z,14.28
2018-11-03T17:03:34.195Z,14.17
2018-11-03T17:06:03.738Z,14.21
2018-11-03T17:08:33.279Z,14.25
2018-11-03T17:11:02.795Z,14.25
2018-11-03T17:13:32.358Z,14.25
2018-11-03T17:16:01.855Z,14.26
2018-11-03T17:18:31.437Z,14.25
2018-11-03T17:21:00.948Z,14.24
2018-11-03T17:23:30.554Z,14.23
2018-11-03T17:26:00.028Z,14.22
2018-11-03T17:28:29.639Z,14.21
2018-11-03T17:30:59.202Z,14.21
2018-11-03T17:33:28.696Z,14.16
2018-11-03T17:35:58.237Z,14.16
2018-11-03T17:38:27.830Z,14.14
2018-11-03T17:40:57.357Z,14.11
2018-11-03T17:43:26.910Z,14.09
2018-11-03T17:45:56.440Z,14.06
2018-11-03T17:48:26.063Z,14.05
2018-11-03T17:50:55.597Z,14.00
2018-11-03T17:53:25.177Z,14.00
2018-11-03T17:55:54.724Z,13.96
2018-11-03T17:58:24.267Z,13.92
2018-11-03T18:00:54.039Z,13.89
2018-11-03T18:03:23.446Z,13.85
2018-11-03T18:05:52.959Z,13.77
2018-11-03T18:08:22.540Z,13.72
2018-11-03T18:10:52.067Z,13.66
2018-11-03T18:13:21.737Z,13.60
2018-11-03T18:15:51.211Z,13.55
2018-11-03T18:18:20.740Z,13.51
2018-11-03T18:20:50.363Z,13.47
2018-11-03T18:23:19.918Z,13.43
2018-11-03T18:25:49.495Z,13.38
2018-11-03T18:28:19.063Z,13.32
2018-11-03T18:30:48.629Z,13.29
2018-11-03T18:33:18.257Z,13.25
2018-11-03T18:35:47.827Z,13.21
2018-11-03T18:38:17.339Z,13.16
2018-11-03T18:40:46.876Z,13.12
2018-11-03T18:43:16.364Z,13.08
2018-11-03T18:45:45.903Z,13.05
2018-11-03T18:48:15.450Z,13.02
2018-11-03T18:50:44.996Z,12.99
2018-11-03T18:53:14.534Z,12.97
2018-11-03T18:55:44.049Z,12.95
2018-11-03T18:58:13.620Z,12.91
2018-11-03T19:00:43.155Z,12.88
2018-11-03T19:03:12.708Z,12.84
2018-11-03T19:05:42.232Z,12.82
2018-11-03T19:08:11.790Z,12.78
2018-11-03T19:10:41.313Z,12.76
2018-11-03T19:13:10.958Z,12.72
2018-11-03T19:15:40.490Z,12.68
2018-11-03T19:18:10.085Z,12.65
2018-11-03T19:20:39.598Z,12.63
2018-11-03T19:23:09.144Z,12.62
2018-11-03T19:25:38.670Z,12.58
2018-11-03T19:28:08.219Z,12.55
2018-11-03T19:30:37.733Z,12.53
2018-11-03T19:33:07.307Z,12.51
2018-11-03T19:35:36.886Z,12.52
2018-11-03T19:38:06.589Z,12.50
2018-11-03T19:40:36.122Z,12.50
2018-11-03T19:43:05.743Z,12.50
2018-11-03T19:45:35.304Z,12.50
2018-11-03T19:48:04.880Z,12.50
2018-11-03T19:50:34.436Z,12.51
2018-11-03T19:53:03.995Z,12.52
2018-11-03T19:55:33.667Z,12.55
2018-11-03T19:58:03.167Z,12.59
2018-11-03T20:00:32.856Z,12.64
2018-11-03T20:03:02.485Z,12.66
2018-11-03T20:05:31.960Z,12.71
2018-11-03T20:08:01.538Z,12.75
2018-11-03T20:10:31.063Z,12.77
2018-11-03T20:13:00.636Z,12.83
2018-11-03T20:15:30.182Z,12.87
2018-11-03T20:17:59.777Z,12.88
2018-11-03T20:20:29.334Z,12.90
2018-11-03T20:22:58.839Z,12.92
2018-11-03T20:25:28.415Z,12.96
2018-11-03T20:27:58.007Z,13.00
2018-11-03T20:30:27.569Z,13.05
2018-11-03T20:32:57.123Z,13.08
2018-11-03T20:35:26.655Z,13.10
2018-11-03T20:37:56.154Z,13.13
2018-11-03T20:40:25.715Z,13.17
2018-11-03T20:42:55.256Z,13.22
2018-11-03T20:45:24.819Z,13.23
2018-11-03T20:47:54.350Z,13.27
2018-11-03T20:50:23.842Z,13.31
2018-11-03T20:52:53.386Z,13.32
2018-11-03T20:55:22.958Z,13.35
2018-11-03T20:57:52.510Z,13.36
2018-11-03T21:00:22.015Z,13.37
2018-11-03T21:02:51.582Z,13.40
2018-11-03T21:05:21.120Z,13.42
2018-11-03T21:07:50.662Z,13.45
2018-11-03T21:10:20.243Z,13.47
2018-11-03T21:12:49.785Z,13.49
2018-11-03T21:15:19.382Z,13.50
2018-11-03T21:17:48.947Z,13.46
2018-11-03T21:20:18.470Z,13.43
2018-11-03T21:22:48.127Z,13.44
2018-11-03T21:25:17.615Z,13.47
2018-11-03T21:27:47.177Z,13.48
2018-11-03T21:30:16.744Z,13.42
2018-11-03T21:32:46.461Z,13.39
2018-11-03T21:35:15.866Z,13.34
2018-11-03T21:37:45.463Z,13.37
2018-11-03T21:40:14.994Z,13.38
2018-11-03T21:42:44.517Z,13.43
2018-11-03T21:45:14.055Z,13.42
2018-11-03T21:47:43.584Z,13.38
2018-11-03T21:50:13.119Z,13.41
2018-11-03T21:52:42.643Z,13.40
2018-11-03T21:55:12.192Z,13.45
2018-11-03T21:57:41.738Z,13.47
2018-11-03T22:00:12.271Z,13.50
2018-11-03T22:02:42.312Z,13.52
2018-11-03T22:05:13.226Z,13.57
2018-11-03T22:07:43.444Z,13.54
2018-11-03T22:10:13.043Z,13.57
2018-11-03T22:12:43.373Z,13.55
2018-11-03T22:15:12.928Z,13.52
2018-11-03T22:17:42.474Z,13.56
2018-11-03T22:20:12.622Z,13.58
2018-11-03T22:22:42.138Z,13.60
2018-11-03T22:25:12.316Z,13.62
2018-11-03T22:27:41.907Z,13.63
2018-11-03T22:30:12.084Z,13.63
2018-11-03T22:32:41.698Z,13.61
2018-11-03T22:35:11.271Z,13.62
2018-11-03T22:37:40.806Z,13.58
2018-11-03T22:40:10.835Z,13.55
2018-11-03T22:42:40.371Z,13.52
2018-11-03T22:45:09.912Z,13.48
2018-11-03T22:47:39.532Z,13.43
2018-11-03T22:50:09.144Z,13.37
2018-11-03T22:52:38.815Z,13.32
2018-11-03T22:55:08.355Z,13.28
2018-11-03T22:57:38.008Z,13.22
2018-11-03T23:00:10.731Z,13.16
2018-11-03T23:02:40.358Z,13.10
2018-11-03T23:05:10.817Z,13.06
2018-11-03T23:07:40.561Z,12.99
2018-11-03T23:10:10.215Z,12.93
2018-11-03T23:12:39.825Z,12.90
2018-11-03T23:15:09.846Z,12.84
2018-11-03T23:17:39.342Z,12.78
2018-11-03T23:20:11.792Z,12.74
2018-11-03T23:22:41.335Z,12.71
2018-11-03T23:25:11.211Z,12.65
2018-11-03T23:27:40.788Z,12.62
2018-11-03T23:30:11.763Z,12.58
2018-11-03T23:32:41.347Z,12.56
2018-11-03T23:35:12.791Z,12.52
2018-11-03T23:37:42.614Z,12.48
2018-11-03T23:40:12.584Z,12.45
2018-11-03T23:42:42.137Z,12.41
2018-11-03T23:45:11.884Z,12.38
2018-11-03T23:47:41.500Z,12.34
2018-11-03T23:50:12.571Z,12.31
2018-11-03T23:52:44.628Z,12.28
2018-11-03T23:55:14.395Z,12.24
2018-11-03T23:57:43.968Z,12.21
